sensor_id;sensor_type;location;lat;lon;timestamp;P1;durP1;ratioP1;P2;durP2;ratioP2
29568;SDS011;16501;51.462;14.346;2023-12-20T00:01:08;4.50;;;3.25;;
29568;SDS011;16501;51.462;14.346;2023-12-20T00:03:33;4.10;;;3.22;;
29568;SDS011;16501;51.462;14.346;2023-12-20T00:05:58;4.75;;;3.55;;
29568;SDS011;16501;51.462;14.346;2023-12-20T00:08:24;3.83;;;3.03;;
29568;SDS011;16501;51.462;14.346;2023-12-20T00:10:49;3.53;;;3.08;;
29568;SDS011;16501;51.462;14.346;2023-12-20T00:13:14;3.55;;;2.85;;
29568;SDS011;16501;51.462;14.346;2023-12-20T00:15:39;4.70;;;3.00;;
29568;SDS011;16501;51.462;14.346;2023-12-20T00:18:05;3.70;;;2.60;;
29568;SDS011;16501;51.462;14.346;2023-12-20T00:20:30;3.53;;;2.47;;
29568;SDS011;16501;51.462;14.346;2023-12-20T00:22:56;3.75;;;2.67;;
29568;SDS011;16501;51.462;14.346;2023-12-20T00:25:25;3.30;;;2.72;;
29568;SDS011;16501;51.462;14.346;2023-12-20T00:27:51;4.10;;;2.45;;
29568;SDS011;16501;51.462;14.346;2023-12-20T00:30:16;4.10;;;2.53;;
29568;SDS011;16501;51.462;14.346;2023-12-20T00:32:42;3.83;;;2.45;;
29568;SDS011;16501;51.462;14.346;2023-12-20T00:35:15;2.55;;;2.33;;
29568;SDS011;16501;51.462;14.346;2023-12-20T00:37:41;4.00;;;2.30;;
29568;SDS011;16501;51.462;14.346;2023-12-20T00:40:07;5.68;;;2.63;;
29568;SDS011;16501;51.462;14.346;2023-12-20T00:42:32;3.05;;;2.40;;
29568;SDS011;16501;51.462;14.346;2023-12-20T00:44:58;3.78;;;2.53;;
29568;SDS011;16501;51.462;14.346;2023-12-20T00:47:24;2.92;;;2.10;;
29568;SDS011;16501;51.462;14.346;2023-12-20T00:49:49;2.70;;;2.40;;
29568;SDS011;16501;51.462;14.346;2023-12-20T00:52:15;2.10;;;1.90;;
29568;SDS011;16501;51.462;14.346;2023-12-20T00:54:42;3.33;;;2.67;;
29568;SDS011;16501;51.462;14.346;2023-12-20T00:57:07;3.15;;;2.50;;
29568;SDS011;16501;51.462;14.346;2023-12-20T00:59:32;2.42;;;2.10;;
29568;SDS011;16501;51.462;14.346;2023-12-20T01:01:58;4.68;;;2.15;;
29568;SDS011;16501;51.462;14.346;2023-12-20T02:31:26;4.05;;;3.17;;
29568;SDS011;16501;51.462;14.346;2023-12-20T02:33:51;4.25;;;2.72;;
29568;SDS011;16501;51.462;14.346;2023-12-20T02:36:16;4.38;;;3.40;;
29568;SDS011;16501;51.462;14.346;2023-12-20T02:38:42;4.22;;;3.20;;
29568;SDS011;16501;51.462;14.346;2023-12-20T02:41:07;3.67;;;3.05;;
29568;SDS011;16501;51.462;14.346;2023-12-20T02:43:32;4.43;;;3.15;;
29568;SDS011;16501;51.462;14.346;2023-12-20T02:45:57;3.42;;;2.85;;
29568;SDS011;16501;51.462;14.346;2023-12-20T02:48:23;5.53;;;2.95;;
29568;SDS011;16501;51.462;14.346;2023-12-20T02:50:48;5.95;;;3.03;;
29568;SDS011;16501;51.462;14.346;2023-12-20T02:53:14;3.00;;;2.33;;
29568;SDS011;16501;51.462;14.346;2023-12-20T02:55:39;2.92;;;2.63;;
29568;SDS011;16501;51.462;14.346;2023-12-20T02:58:04;2.55;;;2.25;;
29568;SDS011;16501;51.462;14.346;2023-12-20T03:00:30;3.58;;;2.38;;
29568;SDS011;16501;51.462;14.346;2023-12-20T03:02:55;2.88;;;2.65;;
29568;SDS011;16501;51.462;14.346;2023-12-20T03:05:20;4.60;;;3.30;;
29568;SDS011;16501;51.462;14.346;2023-12-20T03:07:45;3.22;;;2.70;;
29568;SDS011;16501;51.462;14.346;2023-12-20T03:10:11;3.65;;;2.92;;
29568;SDS011;16501;51.462;14.346;2023-12-20T03:12:36;2.50;;;2.13;;
29568;SDS011;16501;51.462;14.346;2023-12-20T03:15:01;2.88;;;2.40;;
29568;SDS011;16501;51.462;14.346;2023-12-20T03:17:27;2.97;;;2.30;;
29568;SDS011;16501;51.462;14.346;2023-12-20T03:19:52;2.85;;;2.55;;
29568;SDS011;16501;51.462;14.346;2023-12-20T03:22:17;2.92;;;2.28;;
29568;SDS011;16501;51.462;14.346;2023-12-20T03:24:45;2.47;;;2.28;;
29568;SDS011;16501;51.462;14.346;2023-12-20T03:27:10;2.90;;;2.30;;
29568;SDS011;16501;51.462;14.346;2023-12-20T03:29:36;3.22;;;2.38;;
29568;SDS011;16501;51.462;14.346;2023-12-20T03:32:01;3.40;;;3.08;;
29568;SDS011;16501;51.462;14.346;2023-12-20T03:34:26;2.50;;;2.10;;
29568;SDS011;16501;51.462;14.346;2023-12-20T03:36:51;2.60;;;2.38;;
29568;SDS011;16501;51.462;14.346;2023-12-20T03:39:17;2.28;;;1.98;;
29568;SDS011;16501;51.462;14.346;2023-12-20T03:41:42;2.05;;;1.85;;
29568;SDS011;16501;51.462;14.346;2023-12-20T03:44:07;2.83;;;1.92;;
29568;SDS011;16501;51.462;14.346;2023-12-20T03:46:33;2.78;;;2.13;;
29568;SDS011;16501;51.462;14.346;2023-12-20T03:48:58;1.83;;;1.58;;
29568;SDS011;16501;51.462;14.346;2023-12-20T03:51:23;2.20;;;2.00;;
29568;SDS011;16501;51.462;14.346;2023-12-20T03:53:48;3.38;;;2.05;;
29568;SDS011;16501;51.462;14.346;2023-12-20T03:56:14;1.48;;;1.38;;
29568;SDS011;16501;51.462;14.346;2023-12-20T03:58:39;2.40;;;1.85;;
29568;SDS011;16501;51.462;14.346;2023-12-20T04:01:08;2.38;;;2.10;;
29568;SDS011;16501;51.462;14.346;2023-12-20T04:03:35;2.67;;;1.80;;
29568;SDS011;16501;51.462;14.346;2023-12-20T04:06:00;2.30;;;1.90;;
29568;SDS011;16501;51.462;14.346;2023-12-20T04:08:25;2.03;;;1.88;;
29568;SDS011;16501;51.462;14.346;2023-12-20T04:10:51;2.67;;;2.17;;
29568;SDS011;16501;51.462;14.346;2023-12-20T04:13:16;1.85;;;1.70;;
29568;SDS011;16501;51.462;14.346;2023-12-20T04:15:41;2.15;;;1.90;;
29568;SDS011;16501;51.462;14.346;2023-12-20T04:18:06;2.20;;;1.95;;
29568;SDS011;16501;51.462;14.346;2023-12-20T04:20:32;1.58;;;1.48;;
29568;SDS011;16501;51.462;14.346;2023-12-20T04:22:57;3.08;;;1.88;;
29568;SDS011;16501;51.462;14.346;2023-12-20T04:25:22;1.67;;;1.55;;
29568;SDS011;16501;51.462;14.346;2023-12-20T04:27:47;2.28;;;1.85;;
29568;SDS011;16501;51.462;14.346;2023-12-20T04:30:13;1.98;;;1.70;;
29568;SDS011;16501;51.462;14.346;2023-12-20T04:32:38;2.22;;;1.85;;
29568;SDS011;16501;51.462;14.346;2023-12-20T04:35:04;2.00;;;1.80;;
29568;SDS011;16501;51.462;14.346;2023-12-20T04:37:29;1.60;;;1.50;;
29568;SDS011;16501;51.462;14.346;2023-12-20T04:39:54;3.33;;;2.15;;
29568;SDS011;16501;51.462;14.346;2023-12-20T04:42:20;1.65;;;1.45;;
29568;SDS011;16501;51.462;14.346;2023-12-20T04:44:45;1.98;;;1.77;;
29568;SDS011;16501;51.462;14.346;2023-12-20T04:47:10;1.80;;;1.50;;
29568;SDS011;16501;51.462;14.346;2023-12-20T04:49:35;1.50;;;1.40;;
29568;SDS011;16501;51.462;14.346;2023-12-20T04:52:01;2.08;;;1.70;;
29568;SDS011;16501;51.462;14.346;2023-12-20T04:54:26;2.72;;;1.40;;
29568;SDS011;16501;51.462;14.346;2023-12-20T04:56:51;1.85;;;1.55;;
29568;SDS011;16501;51.462;14.346;2023-12-20T04:59:17;1.55;;;1.45;;
29568;SDS011;16501;51.462;14.346;2023-12-20T05:01:42;1.65;;;1.50;;
29568;SDS011;16501;51.462;14.346;2023-12-20T05:04:07;1.63;;;1.40;;
29568;SDS011;16501;51.462;14.346;2023-12-20T05:06:32;1.45;;;1.30;;
29568;SDS011;16501;51.462;14.346;2023-12-20T05:08:58;2.42;;;1.48;;
29568;SDS011;16501;51.462;14.346;2023-12-20T05:11:23;1.35;;;1.25;;
29568;SDS011;16501;51.462;14.346;2023-12-20T05:13:48;3.17;;;1.40;;
29568;SDS011;16501;51.462;14.346;2023-12-20T05:16:15;1.77;;;1.52;;
29568;SDS011;16501;51.462;14.346;2023-12-20T05:18:42;4.10;;;2.45;;
29568;SDS011;16501;51.462;14.346;2023-12-20T05:21:08;2.47;;;2.10;;
29568;SDS011;16501;51.462;14.346;2023-12-20T05:23:33;2.72;;;2.33;;
29568;SDS011;16501;51.462;14.346;2023-12-20T05:25:59;1.77;;;1.67;;
29568;SDS011;16501;51.462;14.346;2023-12-20T05:28:25;4.53;;;2.42;;
29568;SDS011;16501;51.462;14.346;2023-12-20T05:30:50;2.88;;;2.30;;
29568;SDS011;16501;51.462;14.346;2023-12-20T05:33:16;3.53;;;2.58;;
29568;SDS011;16501;51.462;14.346;2023-12-20T05:35:41;9.50;;;6.32;;
29568;SDS011;16501;51.462;14.346;2023-12-20T05:38:06;2.67;;;2.15;;
29568;SDS011;16501;51.462;14.346;2023-12-20T05:40:31;4.38;;;2.00;;
29568;SDS011;16501;51.462;14.346;2023-12-20T05:42:57;1.67;;;1.58;;
29568;SDS011;16501;51.462;14.346;2023-12-20T05:45:22;1.58;;;1.48;;
29568;SDS011;16501;51.462;14.346;2023-12-20T05:47:47;1.67;;;1.58;;
29568;SDS011;16501;51.462;14.346;2023-12-20T05:50:12;1.60;;;1.50;;
29568;SDS011;16501;51.462;14.346;2023-12-20T05:52:38;2.00;;;1.80;;
29568;SDS011;16501;51.462;14.346;2023-12-20T05:55:03;2.40;;;1.50;;
29568;SDS011;16501;51.462;14.346;2023-12-20T05:57:29;1.98;;;1.55;;
29568;SDS011;16501;51.462;14.346;2023-12-20T05:59:54;2.40;;;1.40;;
29568;SDS011;16501;51.462;14.346;2023-12-20T06:02:19;1.65;;;1.50;;
29568;SDS011;16501;51.462;14.346;2023-12-20T06:04:45;1.60;;;1.40;;
29568;SDS011;16501;51.462;14.346;2023-12-20T06:07:13;2.05;;;1.27;;
29568;SDS011;16501;51.462;14.346;2023-12-20T06:09:39;1.70;;;1.50;;
29568;SDS011;16501;51.462;14.346;2023-12-20T06:12:04;2.05;;;1.60;;
29568;SDS011;16501;51.462;14.346;2023-12-20T06:14:30;1.77;;;1.20;;
29568;SDS011;16501;51.462;14.346;2023-12-20T06:16:56;1.33;;;1.23;;
29568;SDS011;16501;51.462;14.346;2023-12-20T06:19:21;1.75;;;1.42;;
29568;SDS011;16501;51.462;14.346;2023-12-20T06:21:47;1.70;;;1.60;;
29568;SDS011;16501;51.462;14.346;2023-12-20T06:24:12;1.55;;;1.40;;
29568;SDS011;16501;51.462;14.346;2023-12-20T06:26:37;2.80;;;1.80;;
29568;SDS011;16501;51.462;14.346;2023-12-20T06:29:03;3.63;;;2.20;;
29568;SDS011;16501;51.462;14.346;2023-12-20T06:31:28;1.63;;;1.52;;
29568;SDS011;16501;51.462;14.346;2023-12-20T06:33:54;2.45;;;1.80;;
29568;SDS011;16501;51.462;14.346;2023-12-20T06:36:22;4.32;;;2.72;;
29568;SDS011;16501;51.462;14.346;2023-12-20T06:38:51;5.35;;;3.08;;
29568;SDS011;16501;51.462;14.346;2023-12-20T06:41:16;5.10;;;3.15;;
29568;SDS011;16501;51.462;14.346;2023-12-20T06:43:41;2.85;;;1.95;;
29568;SDS011;16501;51.462;14.346;2023-12-20T06:46:07;2.80;;;2.15;;
29568;SDS011;16501;51.462;14.346;2023-12-20T06:48:32;5.97;;;2.45;;
29568;SDS011;16501;51.462;14.346;2023-12-20T06:50:59;3.38;;;1.60;;
29568;SDS011;16501;51.462;14.346;2023-12-20T06:53:25;3.22;;;1.58;;
29568;SDS011;16501;51.462;14.346;2023-12-20T06:55:50;1.95;;;1.80;;
29568;SDS011;16501;51.462;14.346;2023-12-20T06:58:15;2.25;;;1.48;;
29568;SDS011;16501;51.462;14.346;2023-12-20T07:00:41;2.25;;;1.75;;
29568;SDS011;16501;51.462;14.346;2023-12-20T07:03:06;3.53;;;1.70;;
29568;SDS011;16501;51.462;14.346;2023-12-20T07:05:32;3.58;;;2.05;;
29568;SDS011;16501;51.462;14.346;2023-12-20T07:07:58;4.88;;;2.25;;
29568;SDS011;16501;51.462;14.346;2023-12-20T07:10:23;5.32;;;2.00;;
29568;SDS011;16501;51.462;14.346;2023-12-20T07:12:48;5.82;;;2.22;;
29568;SDS011;16501;51.462;14.346;2023-12-20T07:15:14;4.60;;;2.10;;
29568;SDS011;16501;51.462;14.346;2023-12-20T07:17:39;2.83;;;1.90;;
29568;SDS011;16501;51.462;14.346;2023-12-20T07:20:04;4.20;;;2.03;;
29568;SDS011;16501;51.462;14.346;2023-12-20T07:22:38;5.30;;;2.75;;
29568;SDS011;16501;51.462;14.346;2023-12-20T07:25:04;2.90;;;2.10;;
29568;SDS011;16501;51.462;14.346;2023-12-20T07:27:29;4.38;;;2.35;;
29568;SDS011;16501;51.462;14.346;2023-12-20T07:29:55;14.07;;;5.45;;
29568;SDS011;16501;51.462;14.346;2023-12-20T07:32:20;11.48;;;6.38;;
29568;SDS011;16501;51.462;14.346;2023-12-20T07:34:46;9.75;;;7.53;;
29568;SDS011;16501;51.462;14.346;2023-12-20T07:37:11;11.90;;;10.35;;
29568;SDS011;16501;51.462;14.346;2023-12-20T07:39:39;9.95;;;6.50;;
29568;SDS011;16501;51.462;14.346;2023-12-20T07:42:06;6.75;;;3.85;;
29568;SDS011;16501;51.462;14.346;2023-12-20T07:44:31;6.53;;;4.85;;
29568;SDS011;16501;51.462;14.346;2023-12-20T07:46:57;9.10;;;4.80;;
29568;SDS011;16501;51.462;14.346;2023-12-20T07:49:22;10.40;;;3.72;;
29568;SDS011;16501;51.462;14.346;2023-12-20T07:51:48;4.85;;;4.28;;
29568;SDS011;16501;51.462;14.346;2023-12-20T07:54:13;5.90;;;3.63;;
29568;SDS011;16501;51.462;14.346;2023-12-20T07:56:38;4.75;;;3.45;;
29568;SDS011;16501;51.462;14.346;2023-12-20T07:59:05;10.73;;;4.22;;
29568;SDS011;16501;51.462;14.346;2023-12-20T08:01:30;6.65;;;3.25;;
29568;SDS011;16501;51.462;14.346;2023-12-20T08:03:55;7.13;;;3.58;;
29568;SDS011;16501;51.462;14.346;2023-12-20T08:06:22;6.95;;;4.75;;
29568;SDS011;16501;51.462;14.346;2023-12-20T08:08:47;7.00;;;5.25;;
29568;SDS011;16501;51.462;14.346;2023-12-20T08:11:12;6.72;;;4.07;;
29568;SDS011;16501;51.462;14.346;2023-12-20T08:13:37;6.00;;;4.13;;
29568;SDS011;16501;51.462;14.346;2023-12-20T08:16:03;3.95;;;3.22;;
29568;SDS011;16501;51.462;14.346;2023-12-20T08:18:29;7.35;;;3.53;;
29568;SDS011;16501;51.462;14.346;2023-12-20T08:20:54;3.60;;;3.30;;
29568;SDS011;16501;51.462;14.346;2023-12-20T08:23:19;9.68;;;4.10;;
29568;SDS011;16501;51.462;14.346;2023-12-20T08:25:48;7.43;;;4.00;;
29568;SDS011;16501;51.462;14.346;2023-12-20T08:28:14;5.15;;;3.30;;
29568;SDS011;16501;51.462;14.346;2023-12-20T08:30:39;7.53;;;4.25;;
29568;SDS011;16501;51.462;14.346;2023-12-20T08:33:04;4.35;;;3.25;;
29568;SDS011;16501;51.462;14.346;2023-12-20T08:35:32;5.90;;;3.33;;
29568;SDS011;16501;51.462;14.346;2023-12-20T08:37:58;4.40;;;3.60;;
29568;SDS011;16501;51.462;14.346;2023-12-20T08:40:23;5.68;;;3.05;;
29568;SDS011;16501;51.462;14.346;2023-12-20T08:42:48;8.52;;;2.97;;
29568;SDS011;16501;51.462;14.346;2023-12-20T08:45:13;6.93;;;3.20;;
29568;SDS011;16501;51.462;14.346;2023-12-20T08:47:39;7.32;;;2.63;;
29568;SDS011;16501;51.462;14.346;2023-12-20T08:50:12;6.82;;;2.75;;
29568;SDS011;16501;51.462;14.346;2023-12-20T08:52:38;3.63;;;2.30;;
29568;SDS011;16501;51.462;14.346;2023-12-20T08:55:03;7.05;;;3.35;;
29568;SDS011;16501;51.462;14.346;2023-12-20T08:57:29;5.28;;;2.72;;
29568;SDS011;16501;51.462;14.346;2023-12-20T08:59:56;11.52;;;4.03;;
29568;SDS011;16501;51.462;14.346;2023-12-20T09:02:21;4.55;;;3.40;;
29568;SDS011;16501;51.462;14.346;2023-12-20T09:04:47;8.15;;;3.15;;
29568;SDS011;16501;51.462;14.346;2023-12-20T09:07:22;9.50;;;2.85;;
29568;SDS011;16501;51.462;14.346;2023-12-20T09:09:51;5.82;;;3.20;;
29568;SDS011;16501;51.462;14.346;2023-12-20T09:12:18;3.28;;;2.72;;
29568;SDS011;16501;51.462;14.346;2023-12-20T09:14:49;6.22;;;3.10;;
29568;SDS011;16501;51.462;14.346;2023-12-20T09:17:16;7.00;;;3.20;;
29568;SDS011;16501;51.462;14.346;2023-12-20T09:19:42;3.72;;;2.65;;
29568;SDS011;16501;51.462;14.346;2023-12-20T09:22:08;2.45;;;2.08;;
29568;SDS011;16501;51.462;14.346;2023-12-20T09:24:34;4.53;;;2.30;;
29568;SDS011;16501;51.462;14.346;2023-12-20T09:26:59;7.20;;;2.50;;
29568;SDS011;16501;51.462;14.346;2023-12-20T09:29:24;2.28;;;2.08;;
29568;SDS011;16501;51.462;14.346;2023-12-20T09:31:50;2.80;;;2.15;;
29568;SDS011;16501;51.462;14.346;2023-12-20T09:34:15;4.50;;;2.55;;
29568;SDS011;16501;51.462;14.346;2023-12-20T09:36:42;5.95;;;2.25;;
29568;SDS011;16501;51.462;14.346;2023-12-20T09:39:16;2.88;;;1.83;;
29568;SDS011;16501;51.462;14.346;2023-12-20T09:41:46;4.15;;;1.55;;
29568;SDS011;16501;51.462;14.346;2023-12-20T09:44:27;4.55;;;1.73;;
29568;SDS011;16501;51.462;14.346;2023-12-20T09:46:53;3.70;;;1.55;;
29568;SDS011;16501;51.462;14.346;2023-12-20T09:49:21;4.90;;;2.30;;
29568;SDS011;16501;51.462;14.346;2023-12-20T09:51:47;2.45;;;1.70;;
29568;SDS011;16501;51.462;14.346;2023-12-20T09:54:13;2.92;;;1.83;;
29568;SDS011;16501;51.462;14.346;2023-12-20T09:56:40;4.20;;;1.50;;
29568;SDS011;16501;51.462;14.346;2023-12-20T09:59:05;1.98;;;1.48;;
29568;SDS011;16501;51.462;14.346;2023-12-20T10:01:30;6.15;;;1.88;;
29568;SDS011;16501;51.462;14.346;2023-12-20T10:03:56;3.05;;;1.67;;
29568;SDS011;16501;51.462;14.346;2023-12-20T10:06:24;6.78;;;1.40;;
29568;SDS011;16501;51.462;14.346;2023-12-20T10:08:49;3.90;;;1.40;;
29568;SDS011;16501;51.462;14.346;2023-12-20T10:11:14;3.97;;;1.50;;
29568;SDS011;16501;51.462;14.346;2023-12-20T10:13:40;3.80;;;2.05;;
29568;SDS011;16501;51.462;14.346;2023-12-20T10:16:06;6.07;;;1.50;;
29568;SDS011;16501;51.462;14.346;2023-12-20T10:18:32;5.05;;;1.80;;
29568;SDS011;16501;51.462;14.346;2023-12-20T10:20:57;4.43;;;1.92;;
29568;SDS011;16501;51.462;14.346;2023-12-20T10:23:23;5.22;;;1.17;;
29568;SDS011;16501;51.462;14.346;2023-12-20T10:25:58;3.85;;;1.40;;
29568;SDS011;16501;51.462;14.346;2023-12-20T10:28:24;3.63;;;1.45;;
29568;SDS011;16501;51.462;14.346;2023-12-20T10:30:52;5.47;;;1.10;;
29568;SDS011;16501;51.462;14.346;2023-12-20T10:33:25;1.85;;;1.00;;
29568;SDS011;16501;51.462;14.346;2023-12-20T10:35:52;6.70;;;1.48;;
29568;SDS011;16501;51.462;14.346;2023-12-20T10:38:18;4.53;;;1.45;;
29568;SDS011;16501;51.462;14.346;2023-12-20T10:40:43;4.05;;;1.30;;
29568;SDS011;16501;51.462;14.346;2023-12-20T10:43:10;2.33;;;1.40;;
29568;SDS011;16501;51.462;14.346;2023-12-20T10:45:36;3.45;;;1.30;;
29568;SDS011;16501;51.462;14.346;2023-12-20T10:48:01;4.03;;;1.40;;
29568;SDS011;16501;51.462;14.346;2023-12-20T10:50:27;2.65;;;1.30;;
29568;SDS011;16501;51.462;14.346;2023-12-20T10:52:54;3.17;;;1.50;;
29568;SDS011;16501;51.462;14.346;2023-12-20T10:55:21;5.43;;;1.30;;
29568;SDS011;16501;51.462;14.346;2023-12-20T10:57:46;8.90;;;1.25;;
29568;SDS011;16501;51.462;14.346;2023-12-20T11:00:16;5.93;;;1.48;;
29568;SDS011;16501;51.462;14.346;2023-12-20T11:02:42;6.03;;;1.15;;
29568;SDS011;16501;51.462;14.346;2023-12-20T11:11:58;6.60;;;1.70;;
29568;SDS011;16501;51.462;14.346;2023-12-20T11:14:08;4.20;;;1.38;;
29568;SDS011;16501;51.462;14.346;2023-12-20T11:16:40;5.78;;;1.45;;
29568;SDS011;16501;51.462;14.346;2023-12-20T11:19:06;5.65;;;1.35;;
29568;SDS011;16501;51.462;14.346;2023-12-20T11:21:31;6.30;;;1.80;;
29568;SDS011;16501;51.462;14.346;2023-12-20T11:23:57;4.03;;;1.30;;
29568;SDS011;16501;51.462;14.346;2023-12-20T11:26:22;3.08;;;1.60;;
29568;SDS011;16501;51.462;14.346;2023-12-20T11:28:53;4.03;;;1.33;;
29568;SDS011;16501;51.462;14.346;2023-12-20T11:31:18;7.28;;;1.50;;
29568;SDS011;16501;51.462;14.346;2023-12-20T11:33:44;22.23;;;8.90;;
29568;SDS011;16501;51.462;14.346;2023-12-20T11:36:13;8.18;;;3.22;;
29568;SDS011;16501;51.462;14.346;2023-12-20T11:38:49;5.13;;;1.77;;
29568;SDS011;16501;51.462;14.346;2023-12-20T11:41:22;7.60;;;1.58;;
29568;SDS011;16501;51.462;14.346;2023-12-20T11:43:49;4.25;;;1.50;;
29568;SDS011;16501;51.462;14.346;2023-12-20T11:46:17;5.57;;;2.33;;
29568;SDS011;16501;51.462;14.346;2023-12-20T11:48:43;5.70;;;1.90;;
29568;SDS011;16501;51.462;14.346;2023-12-20T11:51:10;4.22;;;1.30;;
29568;SDS011;16501;51.462;14.346;2023-12-20T11:53:39;8.45;;;1.75;;
29568;SDS011;16501;51.462;14.346;2023-12-20T11:56:07;5.40;;;2.35;;
29568;SDS011;16501;51.462;14.346;2023-12-20T11:58:34;6.68;;;1.50;;
29568;SDS011;16501;51.462;14.346;2023-12-20T12:01:00;3.30;;;1.33;;
29568;SDS011;16501;51.462;14.346;2023-12-20T12:03:27;2.60;;;1.30;;
29568;SDS011;16501;51.462;14.346;2023-12-20T12:05:52;5.43;;;1.65;;
29568;SDS011;16501;51.462;14.346;2023-12-20T12:08:18;7.20;;;1.40;;
29568;SDS011;16501;51.462;14.346;2023-12-20T12:10:43;3.15;;;1.50;;
29568;SDS011;16501;51.462;14.346;2023-12-20T12:13:09;3.45;;;1.75;;
29568;SDS011;16501;51.462;14.346;2023-12-20T12:15:36;5.70;;;1.40;;
29568;SDS011;16501;51.462;14.346;2023-12-20T12:18:02;7.43;;;1.75;;
29568;SDS011;16501;51.462;14.346;2023-12-20T12:20:27;4.82;;;1.20;;
29568;SDS011;16501;51.462;14.346;2023-12-20T12:23:02;5.57;;;1.63;;
29568;SDS011;16501;51.462;14.346;2023-12-20T12:25:29;4.05;;;1.45;;
29568;SDS011;16501;51.462;14.346;2023-12-20T12:27:56;6.13;;;1.77;;
29568;SDS011;16501;51.462;14.346;2023-12-20T12:30:22;3.78;;;2.13;;
29568;SDS011;16501;51.462;14.346;2023-12-20T12:32:48;9.38;;;2.10;;
29568;SDS011;16501;51.462;14.346;2023-12-20T12:35:13;4.88;;;1.80;;
29568;SDS011;16501;51.462;14.346;2023-12-20T12:37:40;5.78;;;1.88;;
29568;SDS011;16501;51.462;14.346;2023-12-20T12:40:06;3.22;;;1.50;;
29568;SDS011;16501;51.462;14.346;2023-12-20T12:42:34;4.80;;;1.70;;
29568;SDS011;16501;51.462;14.346;2023-12-20T12:45:00;5.50;;;2.00;;
29568;SDS011;16501;51.462;14.346;2023-12-20T12:47:25;6.05;;;1.63;;
29568;SDS011;16501;51.462;14.346;2023-12-20T12:49:51;5.25;;;1.60;;
29568;SDS011;16501;51.462;14.346;2023-12-20T12:52:17;3.42;;;1.95;;
29568;SDS011;16501;51.462;14.346;2023-12-20T12:54:42;4.70;;;1.70;;
29568;SDS011;16501;51.462;14.346;2023-12-20T12:57:09;5.60;;;1.52;;
29568;SDS011;16501;51.462;14.346;2023-12-20T12:59:35;3.53;;;1.45;;
29568;SDS011;16501;51.462;14.346;2023-12-20T13:02:00;3.70;;;1.50;;
29568;SDS011;16501;51.462;14.346;2023-12-20T13:04:25;8.38;;;1.75;;
29568;SDS011;16501;51.462;14.346;2023-12-20T13:06:51;8.30;;;2.33;;
29568;SDS011;16501;51.462;14.346;2023-12-20T13:09:16;2.75;;;1.45;;
29568;SDS011;16501;51.462;14.346;2023-12-20T13:11:41;8.93;;;2.00;;
29568;SDS011;16501;51.462;14.346;2023-12-20T13:14:07;6.85;;;1.80;;
29568;SDS011;16501;51.462;14.346;2023-12-20T13:16:35;4.82;;;1.27;;
29568;SDS011;16501;51.462;14.346;2023-12-20T13:19:01;2.55;;;1.38;;
29568;SDS011;16501;51.462;14.346;2023-12-20T13:21:26;5.88;;;1.63;;
29568;SDS011;16501;51.462;14.346;2023-12-20T13:23:51;5.18;;;1.60;;
29568;SDS011;16501;51.462;14.346;2023-12-20T13:26:17;8.95;;;2.22;;
29568;SDS011;16501;51.462;14.346;2023-12-20T13:28:42;9.77;;;1.77;;
29568;SDS011;16501;51.462;14.346;2023-12-20T13:31:07;1.85;;;1.15;;
29568;SDS011;16501;51.462;14.346;2023-12-20T13:33:33;8.18;;;1.77;;
29568;SDS011;16501;51.462;14.346;2023-12-20T13:35:58;13.43;;;2.22;;
29568;SDS011;16501;51.462;14.346;2023-12-20T13:38:24;11.52;;;2.10;;
29568;SDS011;16501;51.462;14.346;2023-12-20T13:40:50;9.68;;;2.42;;
29568;SDS011;16501;51.462;14.346;2023-12-20T13:43:15;8.32;;;2.83;;
29568;SDS011;16501;51.462;14.346;2023-12-20T13:45:45;5.80;;;1.70;;
29568;SDS011;16501;51.462;14.346;2023-12-20T13:48:10;5.85;;;2.67;;
29568;SDS011;16501;51.462;14.346;2023-12-20T13:50:36;8.15;;;4.55;;
29568;SDS011;16501;51.462;14.346;2023-12-20T13:53:01;10.88;;;5.38;;
29568;SDS011;16501;51.462;14.346;2023-12-20T13:55:29;22.52;;;10.10;;
29568;SDS011;16501;51.462;14.346;2023-12-20T13:57:54;8.43;;;4.18;;
29568;SDS011;16501;51.462;14.346;2023-12-20T14:00:19;5.40;;;2.80;;
29568;SDS011;16501;51.462;14.346;2023-12-20T14:02:45;2.78;;;1.90;;
29568;SDS011;16501;51.462;14.346;2023-12-20T14:05:11;9.35;;;3.92;;
29568;SDS011;16501;51.462;14.346;2023-12-20T14:07:36;7.75;;;3.55;;
29568;SDS011;16501;51.462;14.346;2023-12-20T14:10:02;6.90;;;2.33;;
29568;SDS011;16501;51.462;14.346;2023-12-20T14:12:28;4.45;;;2.88;;
29568;SDS011;16501;51.462;14.346;2023-12-20T14:14:53;7.55;;;2.85;;
29568;SDS011;16501;51.462;14.346;2023-12-20T14:17:20;3.88;;;1.70;;
29568;SDS011;16501;51.462;14.346;2023-12-20T14:19:46;7.85;;;2.53;;
29568;SDS011;16501;51.462;14.346;2023-12-20T14:22:11;4.60;;;1.83;;
29568;SDS011;16501;51.462;14.346;2023-12-20T14:24:36;9.15;;;1.85;;
29568;SDS011;16501;51.462;14.346;2023-12-20T14:27:01;3.92;;;1.52;;
29568;SDS011;16501;51.462;14.346;2023-12-20T14:29:27;6.35;;;2.22;;
29568;SDS011;16501;51.462;14.346;2023-12-20T14:31:52;6.10;;;1.85;;
29568;SDS011;16501;51.462;14.346;2023-12-20T14:34:17;4.03;;;1.60;;
29568;SDS011;16501;51.462;14.346;2023-12-20T14:36:43;5.65;;;2.10;;
29568;SDS011;16501;51.462;14.346;2023-12-20T14:39:08;4.70;;;1.20;;
29568;SDS011;16501;51.462;14.346;2023-12-20T14:41:33;3.65;;;1.27;;
29568;SDS011;16501;51.462;14.346;2023-12-20T14:43:59;7.78;;;2.67;;
29568;SDS011;16501;51.462;14.346;2023-12-20T14:46:24;6.50;;;1.80;;
29568;SDS011;16501;51.462;14.346;2023-12-20T14:48:50;4.53;;;1.90;;
29568;SDS011;16501;51.462;14.346;2023-12-20T14:51:15;7.38;;;1.90;;
29568;SDS011;16501;51.462;14.346;2023-12-20T14:53:40;5.93;;;1.30;;
29568;SDS011;16501;51.462;14.346;2023-12-20T14:56:07;5.88;;;1.65;;
29568;SDS011;16501;51.462;14.346;2023-12-20T14:58:32;4.18;;;2.17;;
29568;SDS011;16501;51.462;14.346;2023-12-20T15:00:58;5.20;;;1.85;;
29568;SDS011;16501;51.462;14.346;2023-12-20T15:03:23;2.88;;;1.63;;
29568;SDS011;16501;51.462;14.346;2023-12-20T15:05:49;4.30;;;1.52;;
29568;SDS011;16501;51.462;14.346;2023-12-20T15:08:14;4.63;;;1.90;;
29568;SDS011;16501;51.462;14.346;2023-12-20T15:10:40;4.00;;;2.28;;
29568;SDS011;16501;51.462;14.346;2023-12-20T15:13:05;5.13;;;1.80;;
29568;SDS011;16501;51.462;14.346;2023-12-20T15:15:31;3.00;;;1.15;;
29568;SDS011;16501;51.462;14.346;2023-12-20T15:17:58;5.18;;;1.90;;
29568;SDS011;16501;51.462;14.346;2023-12-20T15:20:23;4.40;;;1.85;;
29568;SDS011;16501;51.462;14.346;2023-12-20T15:22:49;2.65;;;1.77;;
29568;SDS011;16501;51.462;14.346;2023-12-20T15:25:14;1.98;;;1.40;;
29568;SDS011;16501;51.462;14.346;2023-12-20T15:27:46;7.75;;;3.35;;
29568;SDS011;16501;51.462;14.346;2023-12-20T15:30:14;3.65;;;1.40;;
29568;SDS011;16501;51.462;14.346;2023-12-20T15:32:39;3.25;;;1.48;;
29568;SDS011;16501;51.462;14.346;2023-12-20T15:35:05;3.53;;;1.40;;
29568;SDS011;16501;51.462;14.346;2023-12-20T15:37:31;4.90;;;1.27;;
29568;SDS011;16501;51.462;14.346;2023-12-20T15:39:56;5.20;;;1.60;;
29568;SDS011;16501;51.462;14.346;2023-12-20T15:42:21;4.22;;;1.48;;
29568;SDS011;16501;51.462;14.346;2023-12-20T15:44:47;5.57;;;1.65;;
29568;SDS011;16501;51.462;14.346;2023-12-20T15:47:12;3.90;;;1.75;;
29568;SDS011;16501;51.462;14.346;2023-12-20T15:49:37;2.95;;;1.75;;
29568;SDS011;16501;51.462;14.346;2023-12-20T15:52:02;4.93;;;3.15;;
29568;SDS011;16501;51.462;14.346;2023-12-20T15:54:28;2.03;;;1.65;;
29568;SDS011;16501;51.462;14.346;2023-12-20T15:56:53;8.02;;;2.10;;
29568;SDS011;16501;51.462;14.346;2023-12-20T15:59:18;6.38;;;2.03;;